Terminal Aerodrome Forecast
Issued by NWS Tuscon, AZ

Home | Current Version | Previous Version | Text Only | Print | Product List | Glossary On
Versions: 1 2 3 4 5 6 7 8 9 10 11 12 13 14 15
000
FTUS45 KTWC 300520
TAFDUG
TAF
KDUG 300520Z 3006/3106 05008KT P6SM VCSH BKN100 BKN200
     FM300800 VRB05KT P6SM SCT100 SCT200
     FM302100 20007KT P6SM VCSH SCT080 BKN200
     FM310300 VRB05KT P6SM SCT100 BKN200=

USA.gov is the U.S. government's official web portal to all federal, state and local government web resources and services.